FNF238 EFJY-ESCM
Flight info
| Callsign | FNF238 |
|---|---|
| Flight time | N/A |
| Altitude | 32000 |
| Route | GOSVA DCT PENIV DCT KELAS L87 VACRA |
| Aircraft | LJ35/M-SGHRWXY/SB1 |
Departure
| Time | 2026-04-16 17:21 |
|---|---|
| Airport | Jyväskylä Airport (EFJY) |
Arrival
| Time | N/A |
|---|---|
| Airport | Ärna Air Base (ESCM) |
| Time | Latitude | Longitude | Altitude | Speed | Heading |
|---|---|---|---|---|---|
| 2026-04-16 16:59 | 62.39857 | 25.66829 | 461 ft | 0 kts | 6° |
| 2026-04-16 17:18 | 62.39858 | 25.66829 | 461 ft | 1 kts | 6° |
| 2026-04-16 17:18 | 62.39881 | 25.66850 | 462 ft | 9 kts | 38° |
| 2026-04-16 17:18 | 62.39933 | 25.66955 | 466 ft | 11 kts | 44° |
| 2026-04-16 17:18 | 62.39992 | 25.67077 | 470 ft | 13 kts | 40° |
| 2026-04-16 17:19 | 62.40066 | 25.66987 | 473 ft | 17 kts | 314° |
| 2026-04-16 17:19 | 62.40169 | 25.66756 | 474 ft | 25 kts | 314° |
| 2026-04-16 17:19 | 62.40302 | 25.66461 | 473 ft | 29 kts | 314° |
| 2026-04-16 17:19 | 62.40448 | 25.66132 | 475 ft | 31 kts | 314° |
| 2026-04-16 17:20 | 62.40584 | 25.65832 | 477 ft | 19 kts | 326° |
| 2026-04-16 17:20 | 62.40686 | 25.65843 | 480 ft | 14 kts | 37° |
| 2026-04-16 17:20 | 62.40722 | 25.66036 | 484 ft | 15 kts | 83° |
| 2026-04-16 17:20 | 62.40689 | 25.66165 | 483 ft | 7 kts | 135° |
| 2026-04-16 17:21 | 62.40642 | 25.66270 | 481 ft | 32 kts | 133° |
| 2026-04-16 17:21 | 62.40161 | 25.67347 | 500 ft | 162 kts | 133° |
| 2026-04-16 17:21 | 62.39287 | 25.69229 | 1479 ft | 183 kts | 134° |
| 2026-04-16 17:21 | 62.38207 | 25.70867 | 2528 ft | 206 kts | 158° |
| 2026-04-16 17:22 | 62.36722 | 25.70782 | 3585 ft | 222 kts | 199° |
| 2026-04-16 17:22 | 62.35411 | 25.68851 | 4636 ft | 239 kts | 228° |
| 2026-04-16 17:22 | 62.34540 | 25.65698 | 5716 ft | 255 kts | 247° |
| 2026-04-16 17:22 | 62.33859 | 25.62057 | 7111 ft | 266 kts | 250° |
| 2026-04-16 17:23 | 62.33177 | 25.58319 | 8774 ft | 272 kts | 248° |
| 2026-04-16 17:23 | 62.32381 | 25.54596 | 10507 ft | 278 kts | 245° |
| 2026-04-16 17:23 | 62.31496 | 25.50712 | 12052 ft | 299 kts | 244° |
| 2026-04-16 17:23 | 62.30580 | 25.46588 | 13747 ft | 310 kts | 244° |
| 2026-04-16 17:24 | 62.29671 | 25.42414 | 15458 ft | 308 kts | 244° |
| 2026-04-16 17:24 | 62.28753 | 25.38235 | 16892 ft | 310 kts | 244° |
| 2026-04-16 17:24 | 62.27823 | 25.34050 | 18363 ft | 311 kts | 244° |
| 2026-04-16 17:24 | 62.26891 | 25.29851 | 19677 ft | 313 kts | 244° |
| 2026-04-16 17:25 | 62.25947 | 25.25594 | 21057 ft | 317 kts | 243° |
| 2026-04-16 17:25 | 62.24996 | 25.21314 | 22518 ft | 318 kts | 243° |
| 2026-04-16 17:25 | 62.24045 | 25.17048 | 23992 ft | 316 kts | 243° |
| 2026-04-16 17:25 | 62.23102 | 25.12828 | 25263 ft | 312 kts | 243° |
| 2026-04-16 17:26 | 62.22171 | 25.08665 | 26541 ft | 308 kts | 243° |
| 2026-04-16 17:26 | 62.21233 | 25.04482 | 27494 ft | 314 kts | 243° |
| 2026-04-16 17:26 | 62.20268 | 25.00190 | 28243 ft | 326 kts | 243° |
| 2026-04-16 17:26 | 62.19270 | 24.95760 | 28990 ft | 335 kts | 243° |
| 2026-04-16 17:27 | 62.18246 | 24.91219 | 29799 ft | 342 kts | 243° |
| 2026-04-16 17:27 | 62.17203 | 24.86604 | 30589 ft | 347 kts | 243° |
| 2026-04-16 17:27 | 62.16146 | 24.81939 | 31320 ft | 350 kts | 243° |
| 2026-04-16 17:27 | 62.15076 | 24.77225 | 31991 ft | 357 kts | 243° |
| 2026-04-16 17:28 | 62.13957 | 24.72311 | 32006 ft | 379 kts | 243° |
| 2026-04-16 17:28 | 62.12777 | 24.67139 | 32018 ft | 393 kts | 243° |
| 2026-04-16 17:28 | 62.11568 | 24.61844 | 32018 ft | 401 kts | 243° |
| 2026-04-16 17:29 | 62.09118 | 24.51176 | 32016 ft | 403 kts | 243° |
| 2026-04-16 17:29 | 62.06609 | 24.40310 | 32017 ft | 418 kts | 243° |
| 2026-04-16 17:30 | 62.03985 | 24.28982 | 32016 ft | 431 kts | 243° |
| 2026-04-16 17:30 | 62.01305 | 24.17489 | 32015 ft | 433 kts | 243° |
| 2026-04-16 17:31 | 61.98633 | 24.06086 | 32017 ft | 429 kts | 243° |
| 2026-04-16 17:31 | 61.95968 | 23.94774 | 32018 ft | 427 kts | 243° |
| 2026-04-16 17:32 | 61.93302 | 23.83518 | 32015 ft | 426 kts | 243° |
| 2026-04-16 17:32 | 61.90632 | 23.72301 | 32059 ft | 425 kts | 242° |
| 2026-04-16 17:32 | 61.89301 | 23.66733 | 32178 ft | 422 kts | 242° |
| 2026-04-16 17:33 | 61.87971 | 23.61179 | 32183 ft | 423 kts | 242° |
| 2026-04-16 17:33 | 61.85295 | 23.50055 | 32186 ft | 424 kts | 242° |
| 2026-04-16 17:34 | 61.82603 | 23.38916 | 32183 ft | 426 kts | 242° |
| 2026-04-16 17:34 | 61.79894 | 23.27766 | 32190 ft | 427 kts | 242° |
| 2026-04-16 17:35 | 61.77219 | 23.16814 | 32186 ft | 428 kts | 242° |
| 2026-04-16 17:35 | 61.74479 | 23.05649 | 32189 ft | 429 kts | 242° |
| 2026-04-16 17:36 | 61.71720 | 22.94466 | 32186 ft | 430 kts | 242° |
| 2026-04-16 17:36 | 61.68948 | 22.83285 | 32189 ft | 431 kts | 242° |
| 2026-04-16 17:37 | 61.66162 | 22.72107 | 32188 ft | 432 kts | 242° |
| 2026-04-16 17:37 | 61.63362 | 22.60926 | 32190 ft | 432 kts | 241° |
| 2026-04-16 17:38 | 61.60546 | 22.49743 | 32188 ft | 433 kts | 241° |
| 2026-04-16 17:38 | 61.57717 | 22.38559 | 32190 ft | 434 kts | 241° |
| 2026-04-16 17:39 | 61.54875 | 22.27384 | 32185 ft | 435 kts | 241° |
| 2026-04-16 17:39 | 61.52017 | 22.16205 | 32186 ft | 435 kts | 241° |
| 2026-04-16 17:40 | 61.49145 | 22.05024 | 32182 ft | 436 kts | 241° |
| 2026-04-16 17:40 | 61.45928 | 21.94407 | 32183 ft | 436 kts | 233° |
| 2026-04-16 17:41 | 61.42433 | 21.84047 | 32185 ft | 436 kts | 234° |
| 2026-04-16 17:41 | 61.38927 | 21.73707 | 32186 ft | 437 kts | 233° |
| 2026-04-16 17:42 | 61.35404 | 21.63371 | 32185 ft | 437 kts | 233° |
| 2026-04-16 17:42 | 61.31872 | 21.53046 | 32187 ft | 438 kts | 233° |
| 2026-04-16 17:43 | 61.28331 | 21.42746 | 32190 ft | 438 kts | 233° |
| 2026-04-16 17:43 | 61.24776 | 21.32447 | 32191 ft | 438 kts | 233° |
| 2026-04-16 17:44 | 61.21213 | 21.22177 | 32195 ft | 439 kts | 233° |
| 2026-04-16 17:44 | 61.17636 | 21.11907 | 32198 ft | 439 kts | 233° |
| 2026-04-16 17:45 | 61.14052 | 21.01664 | 32201 ft | 439 kts | 233° |
| 2026-04-16 17:45 | 61.10456 | 20.91434 | 32199 ft | 440 kts | 232° |
| 2026-04-16 17:46 | 61.06853 | 20.81229 | 32204 ft | 440 kts | 232° |
| 2026-04-16 17:46 | 61.03242 | 20.71045 | 32202 ft | 440 kts | 232° |
| 2026-04-16 17:47 | 60.99616 | 20.60862 | 32202 ft | 440 kts | 232° |
| 2026-04-16 17:47 | 60.95985 | 20.50711 | 32202 ft | 440 kts | 232° |
| 2026-04-16 17:48 | 60.92341 | 20.40571 | 32208 ft | 440 kts | 232° |
| 2026-04-16 17:48 | 60.88692 | 20.30458 | 32207 ft | 441 kts | 232° |
| 2026-04-16 17:49 | 60.85036 | 20.20370 | 32212 ft | 441 kts | 231° |
| 2026-04-16 17:49 | 60.81369 | 20.10295 | 32208 ft | 441 kts | 231° |
| 2026-04-16 17:50 | 60.77695 | 20.00247 | 32209 ft | 441 kts | 231° |
| 2026-04-16 17:50 | 60.74037 | 19.90284 | 32211 ft | 441 kts | 231° |
| 2026-04-16 17:51 | 60.70322 | 19.80211 | 32211 ft | 441 kts | 231° |
| 2026-04-16 17:51 | 60.66649 | 19.70293 | 32214 ft | 441 kts | 231° |
| 2026-04-16 17:52 | 60.62943 | 19.60332 | 32217 ft | 441 kts | 231° |
| 2026-04-16 17:52 | 60.59230 | 19.50392 | 32216 ft | 441 kts | 230° |
| 2026-04-16 17:53 | 60.55507 | 19.40468 | 32220 ft | 441 kts | 230° |
| 2026-04-16 17:53 | 60.53643 | 19.35511 | 32062 ft | 445 kts | 230° |
| 2026-04-16 17:53 | 60.51769 | 19.30530 | 31517 ft | 440 kts | 230° |
| 2026-04-16 17:53 | 60.49925 | 19.25659 | 30837 ft | 432 kts | 229° |
| 2026-04-16 17:54 | 60.48108 | 19.20868 | 30161 ft | 425 kts | 229° |
| 2026-04-16 17:54 | 60.46476 | 19.15907 | 29380 ft | 423 kts | 238° |
| 2026-04-16 17:54 | 60.45195 | 19.10557 | 28653 ft | 419 kts | 241° |
| 2026-04-16 17:54 | 60.43943 | 19.05272 | 27951 ft | 414 kts | 240° |
| 2026-04-16 17:55 | 60.42692 | 19.00063 | 27278 ft | 410 kts | 240° |
| 2026-04-16 17:55 | 60.41452 | 18.94900 | 26625 ft | 406 kts | 240° |
| 2026-04-16 17:55 | 60.40230 | 18.89792 | 25996 ft | 402 kts | 240° |
| 2026-04-16 17:55 | 60.39012 | 18.84719 | 25391 ft | 399 kts | 240° |
| 2026-04-16 17:56 | 60.37801 | 18.79703 | 24796 ft | 396 kts | 240° |
| 2026-04-16 17:56 | 60.36596 | 18.74718 | 24216 ft | 393 kts | 240° |
| 2026-04-16 17:56 | 60.34209 | 18.64871 | 22983 ft | 388 kts | 240° |
| 2026-04-16 17:57 | 60.33028 | 18.60013 | 22357 ft | 385 kts | 240° |
| 2026-04-16 17:57 | 60.31849 | 18.55182 | 21746 ft | 382 kts | 240° |
| 2026-04-16 17:57 | 60.30679 | 18.50392 | 21156 ft | 379 kts | 239° |
| 2026-04-16 17:57 | 60.29516 | 18.45642 | 20585 ft | 377 kts | 239° |
| 2026-04-16 17:58 | 60.28255 | 18.41062 | 20017 ft | 370 kts | 231° |
| 2026-04-16 17:58 | 60.27199 | 18.38397 | 19643 ft | 365 kts | 223° |